Terminal Aerodrome Forecast
Issued by NWS

Home | Current Version | Previous Version | Text Only | Print | Product List | Glossary On
Versions: 1 2 3 4 5 6 7 8 9 10 11 12 13 14 15 16 17 18 19 20 21 22 23 24 25 26 27 28 29 30 31 32 33
000
FTUS45 KGJT 291728
TAFCNY
TAFCNY
TAF
KCNY 291728Z 2918/3018 VRB04KT P6SM FEW100
     FM292000 32005KT P6SM SCT080 SCT120
     FM300200 02006KT P6SM FEW120 SCT250
     FM300800 11003KT P6SM FEW250=

USA.gov is the U.S. government's official web portal to all federal, state and local government web resources and services.